»·PEaware :: N525 KSMX-KSBA

N525 :: KSMX-KSBA

FLIGHT INFORMATION

Flight Status: Arrived
Operator: Privately registered:
United States
More flights under this callsign
Pilot: Cirrus Owners and Pilots Association (4888)
Aircraft: Unknown
(G58)
More flights by this aircraft type
Origin: KSMX Santa Maria Pub/Capt Hancock
United States
Destination: KSBA Santa Barbara Mun
United States
More flights between these airports :: More routes between these airports
Route: +ORCUT V27 GVO
File this flight plan on PilotEdge
Remarks:
Altitude:
(Current/Filed)
7,000ft
Speed:
(Current/Filed)
190kts
Departed: 07-Mar-15 01:16 PM
Arrived: 07-Mar-15 01:40 PM
Distance/Time
Traveled:
42nm/0:24
Distance/Time
To Go:
Arrived

Flight Plot

Page will automatically refresh every two minutes.


Map Options




Map Legend


Flown Route
Filed Route
Departure Airport
Arrival Airport
Navaid (VOR, NDB)
Fix

Horizontal Profiles

Position Reports

Time Latitude Longitude Heading Altitude Ground
Speed
07-Mar-15 12:20 34.891421 -120.453591 0 239ft 0kts
07-Mar-15 12:21 34.891421 -120.453591 0 239ft 0kts
07-Mar-15 12:22 34.891421 -120.453591 0 239ft 0kts
07-Mar-15 12:23 34.891421 -120.453591 0 239ft 0kts
07-Mar-15 12:24 34.891421 -120.453591 0 239ft 0kts
07-Mar-15 12:25 34.891421 -120.453591 0 239ft 0kts
07-Mar-15 12:26 34.891421 -120.453591 0 239ft 0kts
07-Mar-15 12:27 34.891421 -120.453591 0 239ft 0kts
07-Mar-15 12:28 34.891421 -120.453591 0 239ft 0kts
07-Mar-15 12:29 34.891421 -120.453591 0 239ft 0kts
07-Mar-15 12:30 34.891421 -120.453591 0 239ft 0kts
07-Mar-15 12:31 34.891421 -120.453591 0 239ft 0kts
07-Mar-15 12:32 34.891421 -120.453591 0 239ft 0kts
07-Mar-15 12:33 34.891421 -120.453591 0 239ft 0kts
07-Mar-15 12:34 34.891421 -120.453591 0 239ft 0kts
07-Mar-15 12:35 34.891421 -120.453591 0 239ft 0kts
07-Mar-15 12:36 34.891421 -120.453591 0 239ft 0kts
07-Mar-15 12:37 34.891421 -120.453591 0 239ft 0kts
07-Mar-15 12:38 34.891421 -120.453591 0 239ft 0kts
07-Mar-15 12:39 34.891421 -120.453591 0 239ft 0kts
07-Mar-15 12:40 34.891421 -120.453591 0 239ft 0kts
07-Mar-15 12:41 34.891421 -120.453591 0 239ft 0kts
07-Mar-15 12:42 34.891421 -120.453591 0 239ft 0kts
07-Mar-15 12:43 34.891421 -120.453591 0 239ft 0kts
07-Mar-15 12:44 34.891421 -120.453591 0 239ft 0kts
07-Mar-15 12:45 34.891421 -120.453591 0 239ft 0kts
07-Mar-15 12:46 34.891421 -120.453591 0 239ft 0kts
07-Mar-15 12:47 34.891421 -120.453591 0 239ft 0kts
07-Mar-15 12:48 34.891421 -120.453591 0 239ft 0kts
07-Mar-15 12:49 34.891421 -120.453591 0 239ft 0kts
07-Mar-15 12:50 34.891421 -120.453591 0 239ft 0kts
07-Mar-15 12:51 34.891421 -120.453591 0 239ft 0kts
07-Mar-15 12:52 34.891421 -120.453591 0 239ft 0kts
07-Mar-15 12:53 34.891421 -120.453591 0 239ft 0kts
07-Mar-15 12:54 34.891421 -120.453591 0 239ft 0kts
07-Mar-15 12:55 34.891421 -120.453591 0 239ft 0kts
07-Mar-15 12:56 34.891421 -120.453591 0 239ft 0kts
07-Mar-15 12:57 34.891421 -120.453591 0 239ft 0kts
07-Mar-15 12:58 34.891421 -120.453591 0 239ft 0kts
07-Mar-15 12:59 34.891421 -120.453591 0 239ft 0kts
07-Mar-15 13:00 34.891421 -120.453591 0 239ft 0kts
07-Mar-15 13:01 34.891421 -120.453591 0 239ft 0kts
07-Mar-15 13:02 34.891421 -120.453591 0 239ft 0kts
07-Mar-15 13:03 34.891556 -120.453590 0 239ft 0kts
07-Mar-15 13:04 34.892008 -120.453657 355 237ft 7kts
07-Mar-15 13:05 34.891758 -120.452456 107 242ft 8kts
07-Mar-15 13:06 34.891703 -120.448713 90 255ft 13kts
07-Mar-15 13:07 34.892018 -120.446518 46 253ft 0kts
07-Mar-15 13:08 34.892169 -120.446357 47 253ft 0kts
07-Mar-15 13:09 34.893697 -120.446876 314 252ft 39kts
07-Mar-15 13:10 34.913780 -120.469140 317 1012ft 110kts
07-Mar-15 13:11 34.935711 -120.492558 319 1992ft 101kts
07-Mar-15 13:12 34.948558 -120.472048 112 2306ft 140kts
07-Mar-15 13:13 34.931505 -120.426726 114 2784ft 148kts
07-Mar-15 13:14 34.914072 -120.380774 114 3300ft 150kts
07-Mar-15 13:15 34.896939 -120.335716 114 3926ft 142kts
07-Mar-15 13:16 34.876037 -120.296319 160 4389ft 146kts
07-Mar-15 13:17 34.836821 -120.281623 164 4890ft 145kts
07-Mar-15 13:18 34.798033 -120.267916 164 5473ft 146kts
07-Mar-15 13:19 34.758740 -120.254502 164 5919ft 151kts
07-Mar-15 13:20 34.715516 -120.239902 164 5913ft 167kts
07-Mar-15 13:21 34.670045 -120.224414 164 5910ft 170kts
07-Mar-15 13:22 34.626309 -120.203337 145 5911ft 170kts
07-Mar-15 13:23 34.588230 -120.168890 134 5911ft 171kts
07-Mar-15 13:24 34.555494 -120.129444 148 5906ft 160kts
07-Mar-15 13:25 34.514674 -120.105069 154 5324ft 153kts
07-Mar-15 13:26 34.479367 -120.084484 154 4481ft 133kts
07-Mar-15 13:27 34.449540 -120.066925 154 3897ft 115kts
07-Mar-15 13:28 34.425514 -120.051967 155 3930ft 104kts
07-Mar-15 13:29 34.418908 -120.011188 83 3482ft 135kts
07-Mar-15 13:30 34.424732 -119.966351 86 1890ft 126kts
07-Mar-15 13:31 34.425815 -119.929256 88 1226ft 91kts
07-Mar-15 13:32 34.426489 -119.899392 88 792ft 117kts
07-Mar-15 13:33 34.426995 -119.862120 88 159ft 107kts
07-Mar-15 13:34 34.428814 -119.835169 341 6ft 14kts
07-Mar-15 13:35 34.430455 -119.835345 359 7ft 16kts
07-Mar-15 13:36 34.432720 -119.835228 59 10ft 0kts

Navigation Log

Ident Type
Flight plan parsing failed, navigation log unavailable